KH6HZ-W3 New Bedford MA US current weather conditions

sailwx.info

Wind from 068 at 5 knots gusting 6

Air temperature 23.3° C
Dewpoint 15.6° C

Last reported at 2019-Aug-23 22:07 UTC.
Time now 2019-Aug-23 23:00 UTC

Location: N 41°36' W 070°55'.
View on Google Maps.

See reports from other nearby stations

  
Tides and Currents Weather Stations Pressure Air Temp Water Temp Dewpoint Dewpoint Depression Visibility Wind Speed Wind Dir Waves Ship Positions
date/time (UTC)wind fromknots sea level pressurealtimeterstation pressurevisibilityair tempwater tempwave heightnotes
2019-Aug-23 22:07 068 5 gusting 6 23.3
2019-Aug-23 21:59 068 6 gusting 6 23.3
2019-Aug-23 21:41 068 5 gusting 8 23.3
2019-Aug-23 21:21 068 4 gusting 6 23.3
2019-Aug-23 21:12 068 6 gusting 6 23.9
2019-Aug-23 20:55 068 5 gusting 5 23.9
2019-Aug-23 20:30 068 5 gusting 8 23.3
2019-Aug-23 20:08 203 2 gusting 2 23.3
2019-Aug-23 19:41 090 4 gusting 5 24.4
2019-Aug-23 19:37 113 3 gusting 6 23.9
2019-Aug-23 19:17 113 5 gusting 6 23.9
2019-Aug-23 18:54 045 6 gusting 6 23.3
2019-Aug-23 18:30 023 6 gusting 6 22.8
2019-Aug-23 18:07 045 8 gusting 10 22.8
2019-Aug-23 17:42 023 3 gusting 4 21.1
2019-Aug-23 17:21 023 3 gusting 4 20.6
2019-Aug-23 17:20 20.6
2019-Aug-23 16:48 293 3 gusting 3 19.4
2019-Aug-23 16:35 293 19.4
2019-Aug-23 15:53 315 1 gusting 1 18.3
2019-Aug-23 15:48 315 1 gusting 1 18.3
2019-Aug-23 15:45 315 3 gusting 4 18.3
2019-Aug-23 15:03 113 18.3
2019-Aug-23 14:59 090 17.8
2019-Aug-23 14:17 023 5 gusting 6 17.8
2019-Aug-23 14:10 113 6 gusting 6 17.8
2019-Aug-23 13:32 045 9 gusting 10 18.3
2019-Aug-23 13:23 023 8 gusting 8 18.3
2019-Aug-23 12:45 045 11 gusting 12 18.9
2019-Aug-23 12:35 023 12 gusting 12 19.4
2019-Aug-23 11:53 045 11 gusting 11 21.1
2019-Aug-23 11:48 045 11 gusting 11 21.1
2019-Aug-23 11:06 045 5 gusting 7 21.7
2019-Aug-23 11:00 045 5 gusting 6 21.7
2019-Aug-23 10:19 068 4 gusting 6 22.2
2019-Aug-23 10:13 045 22.2
2019-Aug-23 09:33 045 8 gusting 8 22.8
2019-Aug-23 09:26 023 8 gusting 8 22.8
2019-Aug-23 09:24 045 8 gusting 8 22.8
2019-Aug-23 08:48 045 12 gusting 12 22.8
2019-Aug-23 08:40 045 10 gusting 13 22.8
2019-Aug-23 08:02 023 12 gusting 13 23.3
2019-Aug-23 07:54 023 10 gusting 12 23.3
2019-Aug-23 07:16 023 5 gusting 5 22.8
2019-Aug-23 07:08 023 5 gusting 5 22.8
2019-Aug-23 06:57 023 6 gusting 7 22.8
2019-Aug-23 06:29 023 5 gusting 5 22.8
2019-Aug-23 06:23 023 4 gusting 4 22.8
2019-Aug-23 06:11 023 5 gusting 5 22.8
2019-Aug-23 05:43 23.3
2019-Aug-23 05:36 338 7 gusting 10 23.3
2019-Aug-23 05:25 23.3
2019-Aug-23 04:57 315 8 gusting 9 23.9
2019-Aug-23 04:50 293 8 gusting 9 23.9
2019-Aug-23 04:35 23.9
2019-Aug-23 04:10 338 3 gusting 3 24.4
2019-Aug-23 04:03 338 5 gusting 5 24.4
2019-Aug-23 03:49 315 5 gusting 5 24.4
2019-Aug-23 03:25 338 6 gusting 6 23.9
2019-Aug-23 03:17 315 6 gusting 7 23.9
2019-Aug-23 02:58 293 7 gusting 7 23.9
2019-Aug-23 02:37 293 6 gusting 6 24.4
2019-Aug-23 02:27 293 6 gusting 6 24.4
2019-Aug-23 02:12 270 9 gusting 9 25.0
2019-Aug-23 01:52 315 6 gusting 7 24.4
2019-Aug-23 01:41 293 7 gusting 8 24.4
2019-Aug-23 01:22 293 8 gusting 8 25.0
2019-Aug-23 01:05 315 8 gusting 9 25.0
2019-Aug-23 00:56 293 8 gusting 9 24.4
2019-Aug-23 00:35 270 6 gusting 8 24.4
2019-Aug-23 00:16 293 9 gusting 10 24.4
2019-Aug-22 23:59 293 7 gusting 8 24.4
2019-Aug-22 23:47 293 7 gusting 8 24.4
2019-Aug-22 23:29 293 8 gusting 8 24.4
2019-Aug-22 23:10 293 8 gusting 9 25.0
2019-Aug-22 23:01 293 7 gusting 9 25.0
2019-Aug-22 22:42 270 9 gusting 11 25.6
2019-Aug-22 22:23 270 9 gusting 9 26.1
2019-Aug-22 22:15 270 11 gusting 11 26.1
2019-Aug-22 21:56 270 10 gusting 13 26.1
2019-Aug-22 21:38 270 12 gusting 12 26.1
2019-Aug-22 21:25 270 13 gusting 14 26.7
2019-Aug-22 21:10 293 12 gusting 14 26.7
2019-Aug-22 20:49 270 13 gusting 13 26.7
2019-Aug-22 20:36 270 12 gusting 17 26.7
2019-Aug-22 20:25 270 13 gusting 15 26.7
2019-Aug-22 20:02 270 13 gusting 16 26.7
2019-Aug-22 19:46 270 16 gusting 16 26.7
2019-Aug-22 19:37 270 14 gusting 14 26.7
2019-Aug-22 19:15 293 15 gusting 19 26.1
2019-Aug-22 18:55 270 14 gusting 15 25.6
2019-Aug-22 18:46 270 12 gusting 13 25.0
2019-Aug-22 18:29 270 13 gusting 14 23.9
2019-Aug-22 18:08 270 13 gusting 13 23.3
2019-Aug-22 17:59 248 10 gusting 10 23.9
2019-Aug-22 17:29 225 11 gusting 11 23.3
2019-Aug-22 17:19 225 12 gusting 12 23.3
2019-Aug-22 17:14 225 11 gusting 11 23.3
2019-Aug-22 16:42 225 8 gusting 10 23.9
2019-Aug-22 16:33 225 9 gusting 9 24.4
2019-Aug-22 16:29 248 8 gusting 8 24.4
2019-Aug-22 15:55 270 6 gusting 8 25.6
2019-Aug-22 15:42 225 7 gusting 8 23.3
2019-Aug-22 15:40 225 8 gusting 8 23.3
2019-Aug-22 15:09 225 6 gusting 6 23.3
2019-Aug-22 14:57 225 6 gusting 7 23.3
2019-Aug-22 14:55 225 6 gusting 7 23.3
2019-Aug-22 14:18 225 6 gusting 6 23.3
2019-Aug-22 14:10 248 7 gusting 7 23.3
2019-Aug-22 13:31 338 23.9
2019-Aug-22 13:24 338 2 gusting 2 23.9
2019-Aug-22 12:43 293 2 gusting 2 23.3
2019-Aug-22 12:37 293 3 gusting 6 23.3
2019-Aug-22 12:34 293 5 gusting 6 23.3
2019-Aug-22 11:55 270 6 gusting 6 23.3
2019-Aug-22 11:48 270 2 gusting 2 23.3
2019-Aug-22 11:10 270 23.3
2019-Aug-22 11:04 293 23.3
2019-Aug-22 10:24 338 4 gusting 5 22.8
2019-Aug-22 10:19 338 4 gusting 4 22.8
2019-Aug-22 09:38 338 2 gusting 2 22.8
2019-Aug-22 09:30 338 5 gusting 6 22.8
2019-Aug-22 08:47 338 7 gusting 7 23.3
2019-Aug-22 08:45 338 6 gusting 6 23.3
2019-Aug-22 08:00 338 23.9
2019-Aug-22 07:14 315 11 gusting 11 23.9
2019-Aug-22 07:04 293 9 gusting 13 23.9
2019-Aug-22 06:29 270 12 gusting 15 23.9
2019-Aug-22 06:17 293 17 gusting 17 23.9
2019-Aug-22 05:40 293 13 gusting 13 23.9
2019-Aug-22 05:27 270 14 gusting 16 23.9
2019-Aug-22 04:52 293 12 gusting 16 24.4
2019-Aug-22 04:41 270 14 gusting 15 24.4
2019-Aug-22 04:07 293 15 gusting 19 24.4
2019-Aug-22 04:05 270 19 gusting 19 24.4
2019-Aug-22 03:53 293 13 gusting 13 25.0
2019-Aug-22 03:21 293 15 gusting 17 25.0
2019-Aug-22 03:17 315 16 gusting 16 25.0
2019-Aug-22 03:07 293 20 gusting 20 25.0
2019-Aug-22 02:35 270 19 gusting 19 25.0
2019-Aug-22 02:28 293 20 gusting 20 25.0
2019-Aug-22 02:21 293 22 gusting 22 25.0
2019-Aug-22 01:48 270 16 gusting 16 24.4
2019-Aug-22 01:43 270 13 gusting 13 24.4
2019-Aug-22 01:22 270 12 gusting 13 23.9
2019-Aug-22 01:00 270 7 gusting 9 23.9
2019-Aug-22 00:36 248 7 gusting 7 23.9
2019-Aug-22 00:14 248 9 gusting 13 23.9
2019-Aug-22 00:07 248 9 gusting 13 23.9
2019-Aug-21 23:49 270 12 gusting 13 23.9
2019-Aug-21 23:20 270 7 gusting 9 23.9
2019-Aug-21 23:00 270 9 gusting 10 23.9